Trondheim, Norge

18:44:CET den 09. februar 2016 (GMT +0100)
Halsoen | | Change Station
CLOSE
Current Station
Personlig værstasjon
Location: Stjørdal, NORD-TRøNDELAG
Høyde over havet: 60 ft
Nearby Weather Stations

H.o.h 60 ft 63.47 °N, 10.91 °E | Updated 6 seconds ago

Clear
Klart
32.4 °F
Feels Like 32 °F
N
0.0
Vind Variabel Vind from Øst
Gusts 0.0 mph

I dag
High -- | Low -- °F
--% Chance of Precip.
I går
High -- | Low -- °F
Precip. -- tommer
Lufttrykk 28.80 tommer
Sikt -9999.0 eng. mil
Skyet
Nedkjølingseffekt 32 °F
Duggpunkt 31 °F
Fuktighet 93%
Regn 0.00 tommer
Snødybde Not available.
8:29 AM 4:32 PM
Nymåne, 2% visible
METAR ENVA 091720Z 09004KT 050V110 CAVOK 00/M03 Q0975 NOSIG RMK WIND 670FT 16009KT
Lufttrykk 28.80 tommer
Sikt -9999.0 eng. mil
Skyet
Nedkjølingseffekt 32 °F
Duggpunkt 31 °F
Fuktighet 93%
Regn 0.00 tommer
Snødybde Not available.
8:29 AM 4:32 PM
Nymåne, 2% visible
METAR ENVA 091720Z 09004KT 050V110 CAVOK 00/M03 Q0975 NOSIG RMK WIND 670FT 16009KT

10-Day Weather Forecast

Almanac

Astronomi

Feb. 09, 2016 Oppgang Nedgang
Virkelig tid
Tussmørke
Nautisk skumring
Astronomisk skumring
Månen
Lengde av synlig lys
Dagens lengde
Tomorrow will be .
, % of the Moon is Illuminated

Dagens maks og min

Country Highs Country Lows

Community

WunderPhotos

Upload Photos

1,891,650 photos uploaded!

WunderBlog® & News

Nearby

Luftkvalitet

  Luftkvalitet AQ Indeks Forurensing
Not available.

Snødybde

Stasjon Depth Høyde over havet

Earthquake Activity

By Distance Mag. Time & Date
Minimum magnitude displayed is 2.5.

Coastal Water Temperatures

Sted Temperatur

Stations

Nearby Weather Stations

Stasjonens lokasjon Temp. Nedkjølingseffekt Duggpunkt Fuktighet Vind Precip. H.o.h Oppdatert Type